Port Angeles, WA

3:15 PM PDT on August 20, 2014 (GMT -0700)
Lake Dawn | Change Station
CLOSE
Current Station
Personal Weather Station
Location: Port Angeles, WA
Elevation: 1864 ft
Nearby Weather Stations

Elev 1864 ft 48.04 °N, 123.43 °W | Updated 43 seconds ago

Mostly Cloudy
Mostly Cloudy
64.0 °F
Feels Like 64.0 °F
N
3.8
Wind Variable Wind from NE
Gusts 6.0 mph

Today
High -- | Low -- °F
--% Chance of Precip.
Yesterday
High -- | Low -- °F
Precip. -- in
6:15 AM 8:18 PM
Waning Crescent, 19% visible
Pressure 29.98 in
Visibility 10.0 miles
Clouds Mostly Cloudy 6000 ft
Mostly Cloudy 8000 ft
Dew Point 52 °F
Humidity 66%
Rainfall 0.00 in
Snow Depth Not available.
UV 4 out of 12
Pollen 2.70 out of 12
PM2.5 Good
Flu Activity Not available.
METAR KFHR 202153Z AUTO 12005KT 10SM BKN060 BKN080 20/12 A2998 RMK AO2 SLP152 T02000122

More Conditions Fewer Conditions

Pressure 29.98 in
Visibility 10.0 miles
Clouds Mostly Cloudy 6000 ft
Mostly Cloudy 8000 ft
Dew Point 52 °F
Humidity 66%
Rainfall 0.00 in
Snow Depth Not available.
UV 4 out of 12
Pollen 2.70 out of 12
PM2.5 Good
Flu Activity Not available.
METAR KFHR 202153Z AUTO 12005KT 10SM BKN060 BKN080 20/12 A2998 RMK AO2 SLP152 T02000122

More Conditions Fewer Conditions

10-Day Weather Forecast

Almanac

Astronomy

Aug. 20, 2014 Rise Set
Actual Time 6:15 AM PDT 8:18 PM PDT
Civil Twilight 5:42 AM PDT 8:51 PM PDT
Nautical Twilight 5:00 AM PDT 9:32 PM PDT
Astronomical Twilight 4:14 AM PDT 10:18 PM PDT
Moon 1:52 AM PDT 5:15 PM PDT
Length of Visible Light 15h 09m
Length of Day
14h 02m
Tomorrow will be 3m 13s shorter.
Waning Crescent, 19% of the Moon is Illuminated
Today
Waning Crescent
Aug 25
New
Sep 2
First Quarter
Sep 8
Full
Sep 15
Last Quarter

Today's Extremes

State Highs State Lows

Community

WunderPhotos

Upload Photos

1,745,773 photos uploaded!

Nearby

Air Quality

  Air Quality AQ Index Pollutant
Yesterday Good
PM2.5
Current Good
PM2.5

Snow Depth

Station Depth Elevation
Dungeness 4 in 4100 ft
Skookum Creek 0 in 3920 ft
Burnt Mountain 1 in 4200 ft
Olallie Meadows 2 in 3700 ft
Meadows Pass 0 in 3500 ft

Earthquake Activity

City Distance Mag. Time & Date
No recent earthquake activity has been reported nearby.
Minimum magnitude displayed is 2.5.

Coastal Water Temperatures

Place Temperature
Port Angeles, WA 52.0 °F
Friday Harbor, WA 53.1 °F
Port Townsend, WA 54.0 °F
La Push, WA 48.9 °F

Nearby Weather Stations